createdAt,value
2022-12-23T00:01:01.391Z,95.80
2022-12-23T00:03:29.731Z,95.70
2022-12-23T00:05:57.741Z,95.90
2022-12-23T00:08:26.399Z,96.20
2022-12-23T00:10:56.518Z,96.30
2022-12-23T00:13:42.061Z,96.50
2022-12-23T00:16:14.795Z,96.50
2022-12-23T00:18:42.917Z,96.50
2022-12-23T00:21:15.556Z,96.70
2022-12-23T00:23:45.401Z,96.60
2022-12-23T00:26:25.215Z,96.50
2022-12-23T00:28:55.171Z,96.40
2022-12-23T00:31:22.375Z,96.40
2022-12-23T00:33:51.782Z,96.40
2022-12-23T00:36:29.542Z,96.30
2022-12-23T00:39:16.471Z,96.20
2022-12-23T00:42:02.938Z,96.30
2022-12-23T00:44:30.254Z,96.30
2022-12-23T00:46:57.592Z,96.40
2022-12-23T00:49:43.255Z,96.20
2022-12-23T00:52:13.923Z,96.20
2022-12-23T00:54:41.097Z,96.30
2022-12-23T00:57:08.215Z,96.20
2022-12-23T00:59:35.773Z,96.20
2022-12-23T01:02:21.531Z,96.20
2022-12-23T01:05:07.410Z,96.30
2022-12-23T01:07:35.098Z,96.40
2022-12-23T01:10:02.325Z,96.40
2022-12-23T01:12:29.490Z,96.50
2022-12-23T01:14:56.791Z,96.50
2022-12-23T01:17:24.064Z,96.40
2022-12-23T01:19:51.658Z,96.80
2022-12-23T01:22:18.810Z,97.00
2022-12-23T01:24:47.362Z,96.90
2022-12-23T01:27:14.554Z,96.90
2022-12-23T01:29:41.879Z,96.60
2022-12-23T01:32:09.184Z,96.70
2022-12-23T01:34:37.679Z,96.70
2022-12-23T01:37:06.795Z,96.70
2022-12-23T01:39:34.049Z,96.70
2022-12-23T01:42:19.978Z,96.80
2022-12-23T01:44:56.653Z,96.80
2022-12-23T01:47:29.587Z,96.60
2022-12-23T01:50:03.063Z,96.60
2022-12-23T01:52:32.135Z,96.70
2022-12-23T01:54:59.266Z,96.60
2022-12-23T01:57:26.556Z,96.50
2022-12-23T02:00:12.323Z,96.60
2022-12-23T02:03:01.154Z,96.70
2022-12-23T02:05:28.686Z,96.50
2022-12-23T02:08:15.518Z,96.70
2022-12-23T02:11:13.767Z,96.90
2022-12-23T02:14:12.841Z,96.70
2022-12-23T02:16:48.066Z,97.00
2022-12-23T02:19:22.964Z,97.00
2022-12-23T02:22:25.511Z,97.10
2022-12-23T02:25:27.378Z,97.00
2022-12-23T02:28:17.077Z,97.00
2022-12-23T02:30:53.261Z,97.00
2022-12-23T02:33:51.575Z,96.90
2022-12-23T02:36:33.347Z,96.80
2022-12-23T02:39:08.023Z,97.10
2022-12-23T02:41:53.785Z,96.70
2022-12-23T02:44:54.607Z,96.70
2022-12-23T02:47:37.916Z,96.60
2022-12-23T02:50:11.178Z,96.50
2022-12-23T02:52:41.403Z,96.50
2022-12-23T02:55:22.891Z,96.60
2022-12-23T02:57:54.608Z,96.60
2022-12-23T03:00:24.385Z,96.60
2022-12-23T03:02:51.892Z,96.70
2022-12-23T03:05:34.847Z,96.70
2022-12-23T03:08:07.630Z,96.80
2022-12-23T03:10:53.586Z,96.90
2022-12-23T03:13:39.598Z,96.90
2022-12-23T03:16:41.982Z,96.80
2022-12-23T03:19:33.657Z,96.70
2022-12-23T03:22:09.924Z,96.70
2022-12-23T03:24:49.051Z,96.70
2022-12-23T03:27:19.228Z,96.70
2022-12-23T03:29:52.255Z,96.60
2022-12-23T03:32:22.289Z,96.50
2022-12-23T03:34:54.774Z,96.20
2022-12-23T03:37:24.907Z,96.40
2022-12-23T03:40:02.036Z,96.60
2022-12-23T03:42:35.014Z,96.50
2022-12-23T03:45:37.475Z,96.40
2022-12-23T03:48:07.349Z,96.20
2022-12-23T03:50:36.259Z,96.30
2022-12-23T03:53:06.399Z,96.30
2022-12-23T03:55:52.067Z,96.30
2022-12-23T03:58:22.183Z,96.30
2022-12-23T04:00:59.932Z,96.50
2022-12-23T04:03:49.156Z,96.60
2022-12-23T04:06:19.899Z,96.40
2022-12-23T04:08:48.817Z,96.20
2022-12-23T04:11:16.076Z,96.20
2022-12-23T04:13:43.360Z,96.40
2022-12-23T04:16:10.885Z,96.40
2022-12-23T04:18:38.209Z,96.40
2022-12-23T04:21:05.899Z,96.40
2022-12-23T04:23:33.003Z,96.30
2022-12-23T04:26:00.343Z,96.40
2022-12-23T04:28:27.610Z,96.60
2022-12-23T04:30:54.915Z,96.60
2022-12-23T04:33:22.275Z,96.80
2022-12-23T04:35:49.488Z,97.00
2022-12-23T04:38:16.718Z,97.10
2022-12-23T04:40:47.609Z,97.20
2022-12-23T04:43:15.051Z,97.20
2022-12-23T04:45:42.268Z,97.20
2022-12-23T04:48:09.679Z,97.20
2022-12-23T04:50:37.036Z,97.20
2022-12-23T04:53:04.212Z,97.10
2022-12-23T04:55:31.353Z,97.30
2022-12-23T04:57:58.534Z,97.20
2022-12-23T05:00:25.843Z,97.30
2022-12-23T05:02:53.219Z,97.40
2022-12-23T05:05:20.759Z,97.80
2022-12-23T05:07:50.735Z,97.60
2022-12-23T05:10:18.130Z,97.90
2022-12-23T05:12:45.210Z,98.10
2022-12-23T05:15:12.389Z,98.10
2022-12-23T05:17:39.631Z,98.00
2022-12-23T05:20:07.773Z,98.20
2022-12-23T05:22:35.003Z,98.20
2022-12-23T05:25:02.179Z,98.20
2022-12-23T05:27:29.994Z,98.10
2022-12-23T05:29:57.243Z,98.30
2022-12-23T05:32:24.717Z,98.20
2022-12-23T05:34:52.238Z,98.20
2022-12-23T05:37:19.461Z,98.10
2022-12-23T05:39:46.736Z,98.20
2022-12-23T05:42:19.327Z,98.30
2022-12-23T05:44:46.672Z,98.20
2022-12-23T05:47:13.958Z,98.30
2022-12-23T05:49:41.159Z,98.30
2022-12-23T05:52:08.351Z,98.20
2022-12-23T05:54:35.523Z,98.60
2022-12-23T05:57:03.145Z,98.60
2022-12-23T05:59:31.596Z,98.60
2022-12-23T06:01:59.453Z,98.50
2022-12-23T06:04:26.932Z,98.60
2022-12-23T06:06:54.238Z,98.60
2022-12-23T06:09:21.501Z,98.80
2022-12-23T06:11:48.896Z,98.80
2022-12-23T06:14:16.382Z,99.00
2022-12-23T06:16:43.656Z,99.10
2022-12-23T06:19:10.876Z,99.20
2022-12-23T06:21:40.731Z,99.50
2022-12-23T06:24:08.044Z,99.30
2022-12-23T06:26:36.391Z,99.50
2022-12-23T06:29:04.289Z,99.60
2022-12-23T06:31:31.539Z,99.70
2022-12-23T06:33:58.864Z,99.60
2022-12-23T06:36:26.093Z,99.60
2022-12-23T06:38:53.232Z,99.60
2022-12-23T06:41:20.456Z,99.90
2022-12-23T06:43:52.626Z,99.90
2022-12-23T06:46:21.651Z,99.60
2022-12-23T06:48:49.093Z,99.70
2022-12-23T06:51:16.286Z,99.80
2022-12-23T06:53:43.452Z,99.80
2022-12-23T06:56:10.724Z,99.90
2022-12-23T06:58:37.924Z,99.90
2022-12-23T07:01:05.447Z,99.90
2022-12-23T07:03:32.936Z,99.90
2022-12-23T07:06:01.589Z,99.90
2022-12-23T07:08:28.774Z,99.90
2022-12-23T07:11:00.625Z,99.90
2022-12-23T07:13:27.990Z,99.90
2022-12-23T07:15:57.019Z,99.90
2022-12-23T07:18:25.224Z,99.90
2022-12-23T07:20:52.932Z,99.90
2022-12-23T07:23:20.157Z,99.90
2022-12-23T07:25:48.680Z,99.90
2022-12-23T07:28:16.800Z,99.90
2022-12-23T07:30:44.056Z,99.90
2022-12-23T07:33:11.215Z,99.90
2022-12-23T07:35:38.639Z,99.90
2022-12-23T07:38:05.813Z,99.90
2022-12-23T07:40:33.229Z,99.90
2022-12-23T07:43:02.322Z,99.90
2022-12-23T07:45:30.234Z,99.90
2022-12-23T07:47:59.871Z,99.90
2022-12-23T07:50:27.982Z,99.90
2022-12-23T07:52:56.188Z,99.90
2022-12-23T07:55:26.031Z,99.90
2022-12-23T07:57:53.581Z,99.90
2022-12-23T08:00:21.433Z,99.90
2022-12-23T08:02:48.981Z,99.90
2022-12-23T08:05:16.769Z,99.90
2022-12-23T08:07:45.448Z,99.90
2022-12-23T08:10:12.861Z,99.90
2022-12-23T08:12:40.183Z,99.90
2022-12-23T08:15:08.073Z,99.90
2022-12-23T08:17:36.513Z,99.90
2022-12-23T08:20:03.860Z,99.90
2022-12-23T08:22:32.024Z,99.90
2022-12-23T08:24:59.842Z,99.90
2022-12-23T08:27:27.170Z,99.90
2022-12-23T08:29:54.359Z,99.90
2022-12-23T08:32:21.624Z,99.90
2022-12-23T08:34:48.772Z,99.90
2022-12-23T08:37:16.811Z,99.90
2022-12-23T08:39:44.003Z,99.90
2022-12-23T08:42:11.171Z,99.90
2022-12-23T08:44:38.403Z,99.90
2022-12-23T08:47:05.681Z,99.90
2022-12-23T08:49:32.988Z,99.90
2022-12-23T08:52:00.544Z,99.90
2022-12-23T08:54:28.530Z,99.90
2022-12-23T08:56:55.788Z,99.70
2022-12-23T08:59:24.311Z,99.60
2022-12-23T09:01:51.588Z,99.90
2022-12-23T09:04:18.846Z,99.90
2022-12-23T09:06:46.252Z,99.90
2022-12-23T09:09:15.833Z,99.90
2022-12-23T09:11:43.070Z,99.90
2022-12-23T09:14:11.273Z,99.90
2022-12-23T09:16:39.625Z,99.90
2022-12-23T09:19:07.932Z,99.90
2022-12-23T09:21:36.668Z,99.50
2022-12-23T09:24:04.128Z,99.60
2022-12-23T09:26:32.350Z,99.30
2022-12-23T09:29:00.237Z,99.50
2022-12-23T09:31:34.032Z,98.80
2022-12-23T09:34:03.431Z,99.20
2022-12-23T09:36:31.681Z,99.30
2022-12-23T09:38:59.210Z,99.40
2022-12-23T09:41:51.130Z,99.40
2022-12-23T09:44:45.879Z,99.20
2022-12-23T09:47:21.086Z,99.10
2022-12-23T09:49:56.486Z,98.60
2022-12-23T09:52:57.499Z,99.10
2022-12-23T09:55:32.403Z,98.90
2022-12-23T09:58:01.750Z,98.90
2022-12-23T10:00:36.001Z,98.40
2022-12-23T10:03:45.182Z,98.30
2022-12-23T10:06:22.656Z,98.40
2022-12-23T10:08:54.747Z,98.40
2022-12-23T10:11:29.385Z,98.40
2022-12-23T10:14:31.234Z,98.20
2022-12-23T10:17:02.505Z,98.00
2022-12-23T10:19:42.045Z,97.80
2022-12-23T10:22:17.454Z,97.60
2022-12-23T10:24:47.007Z,97.60
2022-12-23T10:27:23.536Z,96.50
2022-12-23T10:29:51.008Z,97.50
2022-12-23T10:32:50.181Z,97.40
2022-12-23T10:35:41.459Z,97.60
2022-12-23T10:38:48.094Z,97.50
2022-12-23T10:41:56.212Z,97.20
2022-12-23T10:44:23.355Z,97.30
2022-12-23T10:47:21.767Z,97.10
2022-12-23T10:50:10.183Z,97.00
2022-12-23T10:52:41.473Z,97.30
2022-12-23T10:55:21.351Z,96.80
2022-12-23T10:57:49.867Z,97.00
2022-12-23T11:00:21.920Z,97.10
2022-12-23T11:03:05.848Z,97.10
2022-12-23T11:05:34.519Z,97.10
2022-12-23T11:08:02.566Z,96.80
2022-12-23T11:10:33.153Z,96.40
2022-12-23T11:13:01.852Z,96.90
2022-12-23T11:15:31.075Z,96.80
2022-12-23T11:18:12.307Z,96.80
2022-12-23T11:20:43.633Z,97.00
2022-12-23T11:23:28.949Z,96.60
2022-12-23T11:26:03.904Z,97.00
2022-12-23T11:28:32.294Z,97.50
2022-12-23T11:31:14.664Z,97.60
2022-12-23T11:34:08.836Z,97.30
2022-12-23T11:36:36.319Z,97.00
2022-12-23T11:39:26.720Z,96.80
2022-12-23T11:42:06.162Z,96.50
2022-12-23T11:44:36.175Z,96.60
2022-12-23T11:47:22.323Z,96.60
2022-12-23T11:49:54.359Z,96.60
2022-12-23T11:52:23.631Z,96.50
2022-12-23T11:54:54.988Z,96.40
2022-12-23T11:57:39.758Z,96.20
2022-12-23T12:00:18.114Z,96.10
2022-12-23T12:02:47.434Z,96.50
2022-12-23T12:05:17.545Z,96.80
2022-12-23T12:07:45.673Z,96.70
2022-12-23T12:10:28.385Z,96.70
2022-12-23T12:13:01.076Z,96.20
2022-12-23T12:15:44.165Z,96.50
2022-12-23T12:18:19.154Z,96.50
2022-12-23T12:20:51.725Z,96.30
2022-12-23T12:23:39.869Z,96.00
2022-12-23T12:26:15.580Z,96.10
2022-12-23T12:28:45.927Z,96.20
2022-12-23T12:31:31.350Z,96.20
2022-12-23T12:34:24.732Z,96.00
2022-12-23T12:37:04.825Z,95.90
2022-12-23T12:39:59.527Z,96.10
2022-12-23T12:42:52.490Z,95.90
2022-12-23T12:45:24.223Z,95.70
2022-12-23T12:48:18.305Z,95.70
2022-12-23T12:50:59.855Z,95.70
2022-12-23T12:53:29.842Z,95.40
2022-12-23T12:56:14.924Z,95.40
2022-12-23T12:58:44.981Z,94.70
2022-12-23T13:01:12.290Z,94.80
2022-12-23T13:03:51.518Z,94.80
2022-12-23T13:06:40.673Z,94.90
2022-12-23T13:09:35.862Z,94.90
2022-12-23T13:12:24.790Z,94.60
2022-12-23T13:15:12.466Z,94.40
2022-12-23T13:17:48.351Z,94.20
2022-12-23T13:20:35.475Z,94.40
2022-12-23T13:23:42.971Z,94.00
2022-12-23T13:26:20.530Z,93.50
2022-12-23T13:29:08.819Z,93.60
2022-12-23T13:32:11.639Z,93.90
2022-12-23T13:34:56.081Z,94.10
2022-12-23T13:37:29.677Z,94.30
2022-12-23T13:40:22.771Z,94.50
2022-12-23T13:42:54.480Z,94.60
2022-12-23T13:45:26.437Z,94.70
2022-12-23T13:48:14.612Z,94.80
2022-12-23T13:50:50.373Z,94.90
2022-12-23T13:53:33.222Z,95.00
2022-12-23T13:56:07.693Z,95.00
2022-12-23T13:58:35.572Z,95.00
2022-12-23T14:01:08.994Z,95.20
2022-12-23T14:03:39.455Z,94.90
2022-12-23T14:06:32.688Z,94.80
2022-12-23T14:08:59.963Z,94.90
2022-12-23T14:11:32.197Z,95.00
2022-12-23T14:14:15.093Z,94.90
2022-12-23T14:17:00.848Z,94.90
2022-12-23T14:19:34.144Z,94.70
2022-12-23T14:22:30.569Z,94.80
2022-12-23T14:25:16.703Z,94.90
2022-12-23T14:28:11.989Z,94.70
2022-12-23T14:30:45.042Z,94.90
2022-12-23T14:33:24.172Z,94.50
2022-12-23T14:36:13.416Z,94.60
2022-12-23T14:38:41.834Z,94.70
2022-12-23T14:41:38.531Z,94.70
2022-12-23T14:44:22.381Z,94.60
2022-12-23T14:46:49.577Z,94.60
2022-12-23T14:49:40.409Z,94.60
2022-12-23T14:52:39.360Z,94.70
2022-12-23T14:55:31.992Z,94.70
2022-12-23T14:58:27.147Z,94.70
2022-12-23T15:01:02.513Z,94.80
2022-12-23T15:03:34.654Z,94.90
2022-12-23T15:06:06.288Z,95.00
2022-12-23T15:08:39.124Z,94.60
2022-12-23T15:11:09.419Z,94.70
2022-12-23T15:13:37.826Z,94.80
2022-12-23T15:16:05.274Z,94.80
2022-12-23T15:18:32.675Z,94.90
2022-12-23T15:21:09.755Z,95.00
2022-12-23T15:23:36.884Z,95.00
2022-12-23T15:26:04.171Z,95.20
2022-12-23T15:28:39.708Z,95.10
2022-12-23T15:31:26.344Z,95.20
2022-12-23T15:34:04.068Z,95.30
2022-12-23T15:36:40.447Z,95.30
2022-12-23T15:39:16.818Z,95.40
2022-12-23T15:41:46.479Z,95.30
2022-12-23T15:44:20.513Z,95.40
2022-12-23T15:46:50.604Z,95.50
2022-12-23T15:49:20.042Z,95.50
2022-12-23T15:52:11.139Z,95.50
2022-12-23T15:55:12.196Z,95.60
2022-12-23T15:57:49.746Z,95.80
2022-12-23T16:00:26.479Z,95.80
2022-12-23T16:03:01.577Z,95.80
2022-12-23T16:05:38.407Z,95.80
2022-12-23T16:08:19.359Z,95.80
2022-12-23T16:11:20.980Z,95.70
2022-12-23T16:14:00.560Z,95.70
2022-12-23T16:16:33.346Z,95.80
2022-12-23T16:19:00.947Z,96.00
2022-12-23T16:21:32.170Z,96.10
2022-12-23T16:24:00.538Z,96.20
2022-12-23T16:26:27.999Z,96.30
2022-12-23T16:28:59.544Z,96.10
2022-12-23T16:31:27.016Z,96.40
2022-12-23T16:33:56.825Z,96.50
2022-12-23T16:36:27.158Z,96.30
2022-12-23T16:38:57.484Z,96.40
2022-12-23T16:41:24.861Z,96.40
2022-12-23T16:43:53.053Z,96.20
2022-12-23T16:46:23.292Z,96.10
2022-12-23T16:48:55.969Z,96.30
2022-12-23T16:51:24.059Z,96.30
2022-12-23T16:53:56.433Z,96.50
2022-12-23T16:56:28.107Z,96.50
2022-12-23T16:58:55.597Z,96.50
2022-12-23T17:01:24.582Z,96.50
2022-12-23T17:03:52.619Z,96.70
2022-12-23T17:06:20.493Z,96.70
2022-12-23T17:08:48.171Z,96.70
2022-12-23T17:11:16.580Z,96.90
2022-12-23T17:13:44.879Z,97.20
2022-12-23T17:16:20.837Z,97.20
2022-12-23T17:18:49.132Z,97.20
2022-12-23T17:21:21.929Z,97.50
2022-12-23T17:23:51.049Z,97.70
2022-12-23T17:26:18.491Z,97.70
2022-12-23T17:28:45.930Z,97.80
2022-12-23T17:31:16.204Z,97.90
2022-12-23T17:33:45.404Z,98.00
2022-12-23T17:36:14.250Z,98.30
2022-12-23T17:38:41.540Z,98.50
2022-12-23T17:41:22.494Z,98.60
2022-12-23T17:43:49.729Z,98.60
2022-12-23T17:46:16.983Z,98.60
2022-12-23T17:48:49.277Z,98.70
2022-12-23T17:51:19.082Z,98.80
2022-12-23T17:53:51.595Z,98.80
2022-12-23T17:56:22.629Z,98.80
2022-12-23T17:58:50.839Z,98.90
2022-12-23T18:01:32.680Z,99.10
2022-12-23T18:04:00.536Z,99.10
2022-12-23T18:06:29.113Z,99.20
2022-12-23T18:08:57.469Z,99.20
2022-12-23T18:11:35.012Z,99.00
2022-12-23T18:14:02.914Z,99.00
2022-12-23T18:16:30.812Z,98.90
2022-12-23T18:18:58.274Z,98.60
2022-12-23T18:21:28.838Z,98.70
2022-12-23T18:23:58.861Z,98.50
2022-12-23T18:26:26.175Z,98.60
2022-12-23T18:28:54.344Z,98.60
2022-12-23T18:31:24.615Z,98.80
2022-12-23T18:33:53.292Z,98.50
2022-12-23T18:36:30.563Z,98.50
2022-12-23T18:38:58.156Z,98.70
2022-12-23T18:41:27.318Z,98.90
2022-12-23T18:43:55.236Z,98.90
2022-12-23T18:46:22.771Z,98.80
2022-12-23T18:48:51.526Z,98.60
2022-12-23T18:51:20.873Z,98.70
2022-12-23T18:53:49.098Z,98.70
2022-12-23T18:56:21.211Z,98.70
2022-12-23T18:58:51.702Z,98.50
2022-12-23T19:01:19.617Z,98.40
2022-12-23T19:03:47.890Z,98.40
2022-12-23T19:06:16.127Z,98.70
2022-12-23T19:08:44.216Z,98.70
2022-12-23T19:11:17.680Z,98.50
2022-12-23T19:13:45.249Z,98.80
2022-12-23T19:16:18.399Z,98.60
2022-12-23T19:18:47.222Z,98.60
2022-12-23T19:21:15.831Z,98.40
2022-12-23T19:23:43.754Z,98.50
2022-12-23T19:26:12.511Z,98.70
2022-12-23T19:28:41.553Z,98.70
2022-12-23T19:31:11.036Z,98.80
2022-12-23T19:33:39.785Z,98.40
2022-12-23T19:36:16.324Z,98.60
2022-12-23T19:38:43.896Z,98.20
2022-12-23T19:41:11.264Z,98.00
2022-12-23T19:43:39.066Z,98.20
2022-12-23T19:46:08.496Z,98.30
2022-12-23T19:48:36.733Z,98.30
2022-12-23T19:51:11.864Z,98.90
2022-12-23T19:53:41.316Z,98.50
2022-12-23T19:56:11.817Z,98.20
2022-12-23T19:58:41.618Z,98.20
2022-12-23T20:01:12.289Z,98.40
2022-12-23T20:03:41.428Z,98.50
2022-12-23T20:06:14.723Z,98.70
2022-12-23T20:08:46.072Z,98.70
2022-12-23T20:11:16.947Z,98.10
2022-12-23T20:13:45.264Z,98.30
2022-12-23T20:16:13.499Z,98.20
2022-12-23T20:18:40.990Z,98.20
2022-12-23T20:21:08.393Z,98.50
2022-12-23T20:23:35.840Z,98.40
2022-12-23T20:26:03.480Z,98.50
2022-12-23T20:28:32.503Z,98.70
2022-12-23T20:31:21.219Z,98.60
2022-12-23T20:33:50.999Z,98.80
2022-12-23T20:36:21.584Z,98.60
2022-12-23T20:38:52.131Z,98.20
2022-12-23T20:41:23.986Z,98.70
2022-12-23T20:44:31.806Z,98.70
2022-12-23T20:46:39.837Z,98.70
2022-12-23T20:49:07.444Z,98.40
2022-12-23T20:51:34.826Z,98.10
2022-12-23T20:54:02.299Z,98.30
2022-12-23T20:56:30.537Z,98.00
2022-12-23T20:58:59.348Z,97.90
2022-12-23T21:01:28.506Z,98.10
2022-12-23T21:03:57.518Z,97.90
2022-12-23T21:06:26.664Z,98.20
2022-12-23T21:08:55.895Z,98.20
2022-12-23T21:11:23.654Z,98.10
2022-12-23T21:13:51.541Z,98.10
2022-12-23T21:16:19.292Z,98.20
2022-12-23T21:18:53.247Z,98.20
2022-12-23T21:21:23.711Z,98.40
2022-12-23T21:23:51.630Z,98.40
2022-12-23T21:26:22.258Z,98.70
2022-12-23T21:28:51.903Z,98.70
2022-12-23T21:31:22.971Z,98.60
2022-12-23T21:33:51.484Z,98.10
2022-12-23T21:36:21.962Z,98.20
2022-12-23T21:38:50.106Z,98.30
2022-12-23T21:41:22.698Z,98.50
2022-12-23T21:43:50.510Z,98.50
2022-12-23T21:46:20.909Z,98.40
2022-12-23T21:48:49.359Z,98.40
2022-12-23T21:51:22.655Z,98.50
2022-12-23T21:53:51.798Z,98.20
2022-12-23T21:56:21.786Z,98.30
2022-12-23T21:58:48.916Z,98.40
2022-12-23T22:01:18.439Z,98.30
2022-12-23T22:03:47.723Z,98.30
2022-12-23T22:06:24.151Z,98.40
2022-12-23T22:08:53.346Z,98.30
2022-12-23T22:11:29.230Z,98.20
2022-12-23T22:13:58.504Z,98.30
2022-12-23T22:16:27.401Z,98.30
2022-12-23T22:18:57.143Z,98.40
2022-12-23T22:21:32.622Z,98.30
2022-12-23T22:24:00.702Z,98.30
2022-12-23T22:26:30.911Z,98.40
2022-12-23T22:29:00.491Z,98.30
2022-12-23T22:31:40.496Z,98.20
2022-12-23T22:34:09.181Z,98.10
2022-12-23T22:36:36.578Z,98.30
2022-12-23T22:39:04.349Z,98.40
2022-12-23T22:41:32.060Z,98.40
2022-12-23T22:43:59.636Z,98.70
2022-12-23T22:46:27.703Z,98.60
2022-12-23T22:48:55.237Z,98.50
2022-12-23T22:51:25.181Z,98.50
2022-12-23T22:53:52.873Z,98.70
2022-12-23T22:56:21.800Z,98.90
2022-12-23T22:58:52.524Z,99.00
2022-12-23T23:01:30.709Z,99.10
2022-12-23T23:04:00.118Z,99.30
2022-12-23T23:06:29.759Z,99.30
2022-12-23T23:08:57.258Z,99.30
2022-12-23T23:11:26.502Z,99.40
2022-12-23T23:13:54.167Z,99.50
2022-12-23T23:16:21.778Z,99.60
2022-12-23T23:18:49.023Z,99.60
2022-12-23T23:21:16.344Z,99.40
2022-12-23T23:23:43.600Z,99.50
2022-12-23T23:26:12.639Z,99.60
2022-12-23T23:28:40.574Z,99.20
2022-12-23T23:33:57.908Z,99.40
2022-12-23T23:36:25.441Z,99.50
2022-12-23T23:38:52.702Z,99.50
2022-12-23T23:41:23.821Z,99.30
2022-12-23T23:43:52.056Z,99.50
2022-12-23T23:46:19.786Z,99.60
2022-12-23T23:48:47.474Z,99.40
2022-12-23T23:51:14.739Z,99.40
2022-12-23T23:53:41.945Z,99.20
2022-12-23T23:56:09.665Z,99.30
2022-12-23T23:58:37.746Z,99.20
